createdAt,value
2022-12-15T00:00:51.205Z,-5.20
2022-12-15T00:03:37.482Z,-5.20
2022-12-15T00:06:23.861Z,-5.20
2022-12-15T00:09:14.187Z,-5.20
2022-12-15T00:12:00.336Z,-5.30
2022-12-15T00:14:49.685Z,-5.30
2022-12-15T00:17:35.643Z,-5.30
2022-12-15T00:20:21.599Z,-5.30
2022-12-15T00:23:09.805Z,-5.30
2022-12-15T00:25:56.495Z,-5.30
2022-12-15T00:28:45.107Z,-5.30
2022-12-15T00:31:31.572Z,-5.30
2022-12-15T00:34:17.870Z,-5.30
2022-12-15T00:37:05.967Z,-5.40
2022-12-15T00:39:33.220Z,-5.40
2022-12-15T00:42:00.192Z,-5.40
2022-12-15T00:44:27.940Z,-5.40
2022-12-15T00:46:55.654Z,-5.40
2022-12-15T00:49:57.350Z,-5.40
2022-12-15T00:52:48.605Z,-5.40
2022-12-15T00:55:34.096Z,-5.50
2022-12-15T00:58:20.771Z,-5.50
2022-12-15T01:01:07.608Z,-5.50
2022-12-15T01:03:54.628Z,-5.60
2022-12-15T01:06:41.401Z,-5.60
2022-12-15T01:09:34.305Z,-5.60
2022-12-15T01:12:20.492Z,-5.60
2022-12-15T01:15:06.065Z,-5.60
2022-12-15T01:17:51.744Z,-5.60
2022-12-15T01:20:18.883Z,-5.70
2022-12-15T01:22:55.179Z,-5.70
2022-12-15T01:25:25.203Z,-5.70
2022-12-15T01:27:52.311Z,-5.70
2022-12-15T01:30:25.741Z,-5.60
2022-12-15T01:32:53.791Z,-5.50
2022-12-15T01:35:25.929Z,-5.40
2022-12-15T01:37:54.742Z,-5.40
2022-12-15T01:40:44.176Z,-5.30
2022-12-15T01:43:17.700Z,-5.20
2022-12-15T01:45:52.610Z,-5.20
2022-12-15T01:48:43.166Z,-5.20
2022-12-15T01:51:35.033Z,-5.20
2022-12-15T01:54:15.366Z,-5.20
2022-12-15T01:56:49.192Z,-5.20
2022-12-15T01:59:21.330Z,-5.20
2022-12-15T02:01:49.867Z,-5.30
2022-12-15T02:04:19.598Z,-5.30
2022-12-15T02:06:47.590Z,-5.30
2022-12-15T02:09:15.825Z,-5.30
2022-12-15T02:12:34.815Z,-5.30
2022-12-15T02:15:13.228Z,-5.30
2022-12-15T02:18:12.739Z,-5.30
2022-12-15T02:21:21.393Z,-5.30
2022-12-15T02:23:55.232Z,-5.30
2022-12-15T02:26:26.018Z,-5.30
2022-12-15T02:29:28.043Z,-5.30
2022-12-15T02:32:06.594Z,-5.30
2022-12-15T02:35:03.936Z,-5.30
2022-12-15T02:37:36.572Z,-5.30
2022-12-15T02:40:07.157Z,-5.30
2022-12-15T02:42:39.194Z,-5.30
2022-12-15T02:45:15.501Z,-5.30
2022-12-15T02:48:12.494Z,-5.30
2022-12-15T02:50:50.029Z,-5.30
2022-12-15T02:53:55.682Z,-5.40
2022-12-15T02:56:44.592Z,-5.40
2022-12-15T02:59:29.763Z,-5.50
2022-12-15T03:02:05.769Z,-5.50
2022-12-15T03:04:34.123Z,-5.50
2022-12-15T03:07:05.568Z,-5.50
2022-12-15T03:09:33.076Z,-5.50
2022-12-15T03:12:00.884Z,-5.50
2022-12-15T03:14:30.010Z,-5.50
2022-12-15T03:16:59.430Z,-5.60
2022-12-15T03:19:26.855Z,-5.60
2022-12-15T03:21:54.437Z,-5.60
2022-12-15T03:24:24.724Z,-5.60
2022-12-15T03:26:54.674Z,-5.50
2022-12-15T03:29:26.610Z,-5.50
2022-12-15T03:31:54.651Z,-5.50
2022-12-15T03:34:22.137Z,-5.40
2022-12-15T03:36:50.617Z,-5.40
2022-12-15T03:39:19.058Z,-5.40
2022-12-15T03:41:46.105Z,-5.30
2022-12-15T03:44:12.990Z,-5.30
2022-12-15T03:46:40.157Z,-5.30
2022-12-15T03:49:08.257Z,-5.30
2022-12-15T03:51:35.131Z,-5.30
2022-12-15T03:54:02.974Z,-5.40
2022-12-15T03:56:30.807Z,-5.40
2022-12-15T03:58:59.846Z,-5.40
2022-12-15T04:01:32.646Z,-5.40
2022-12-15T04:04:02.035Z,-5.40
2022-12-15T04:06:30.002Z,-5.40
2022-12-15T04:08:57.305Z,-5.40
2022-12-15T04:11:25.639Z,-5.30
2022-12-15T04:13:53.099Z,-5.30
2022-12-15T04:16:22.185Z,-5.30
2022-12-15T04:19:09.420Z,-5.20
2022-12-15T04:21:36.752Z,-5.20
2022-12-15T04:24:22.738Z,-5.20
2022-12-15T04:27:08.392Z,-5.20
2022-12-15T04:29:54.221Z,-5.20
2022-12-15T04:32:41.018Z,-5.20
2022-12-15T04:35:26.821Z,-5.20
2022-12-15T04:38:13.007Z,-5.10
2022-12-15T04:40:59.168Z,-5.10
2022-12-15T04:43:46.296Z,-5.10
2022-12-15T04:46:32.104Z,-5.00
2022-12-15T04:49:17.676Z,-5.00
2022-12-15T04:52:05.622Z,-4.90
2022-12-15T04:54:52.865Z,-4.80
2022-12-15T04:57:38.736Z,-4.80
2022-12-15T05:00:25.034Z,-4.80
2022-12-15T05:03:16.532Z,-4.90
2022-12-15T05:06:04.459Z,-4.90
2022-12-15T05:08:50.563Z,-4.90
2022-12-15T05:11:37.151Z,-4.90
2022-12-15T05:14:23.913Z,-4.90
2022-12-15T05:17:09.832Z,-4.90
2022-12-15T05:19:55.418Z,-4.90
2022-12-15T05:22:42.197Z,-4.90
2022-12-15T05:25:28.234Z,-4.90
2022-12-15T05:28:18.674Z,-4.90
2022-12-15T05:31:04.156Z,-5.00
2022-12-15T05:33:31.926Z,-5.00
2022-12-15T05:35:58.984Z,-5.00
2022-12-15T05:38:32.508Z,-5.00
2022-12-15T05:40:59.834Z,-5.00
2022-12-15T05:43:30.099Z,-5.10
2022-12-15T05:45:57.326Z,-5.10
2022-12-15T05:48:24.864Z,-5.10
2022-12-15T05:50:58.702Z,-5.00
2022-12-15T05:53:25.956Z,-5.00
2022-12-15T05:55:52.808Z,-5.00
2022-12-15T05:58:19.682Z,-5.10
2022-12-15T06:00:46.533Z,-5.10
2022-12-15T06:03:15.756Z,-5.10
2022-12-15T06:05:42.753Z,-5.10
2022-12-15T06:08:12.308Z,-5.10
2022-12-15T06:10:43.597Z,-5.10
2022-12-15T06:13:11.550Z,-5.10
2022-12-15T06:15:40.631Z,-5.10
2022-12-15T06:18:09.047Z,-5.20
2022-12-15T06:20:35.947Z,-5.10
2022-12-15T06:23:06.295Z,-5.20
2022-12-15T06:25:33.206Z,-5.20
2022-12-15T06:28:02.030Z,-5.20
2022-12-15T06:30:30.401Z,-5.20
2022-12-15T06:32:58.075Z,-5.10
2022-12-15T06:35:24.940Z,-5.10
2022-12-15T06:37:54.499Z,-5.10
2022-12-15T06:40:22.864Z,-5.10
2022-12-15T06:42:52.747Z,-5.10
2022-12-15T06:45:20.810Z,-5.10
2022-12-15T06:47:48.957Z,-5.10
2022-12-15T06:50:18.159Z,-5.10
2022-12-15T06:52:45.395Z,-5.10
2022-12-15T06:55:12.360Z,-5.10
2022-12-15T06:57:39.750Z,-5.10
2022-12-15T07:00:07.695Z,-5.10
2022-12-15T07:02:36.043Z,-5.10
2022-12-15T07:05:03.169Z,-5.10
2022-12-15T07:07:30.084Z,-5.00
2022-12-15T07:09:59.624Z,-5.10
2022-12-15T07:12:26.561Z,-5.10
2022-12-15T07:14:57.849Z,-5.00
2022-12-15T07:17:25.700Z,-5.00
2022-12-15T07:19:53.568Z,-5.00
2022-12-15T07:22:21.983Z,-5.00
2022-12-15T07:24:49.408Z,-5.00
2022-12-15T07:27:19.591Z,-5.00
2022-12-15T07:29:46.816Z,-5.00
2022-12-15T07:32:15.435Z,-5.00
2022-12-15T07:34:42.950Z,-5.00
2022-12-15T07:37:09.897Z,-5.00
2022-12-15T07:39:38.152Z,-5.00
2022-12-15T07:42:05.308Z,-5.00
2022-12-15T07:44:32.334Z,-5.00
2022-12-15T07:47:00.417Z,-5.00
2022-12-15T07:49:28.890Z,-4.90
2022-12-15T07:51:58.596Z,-4.90
2022-12-15T07:54:25.886Z,-4.90
2022-12-15T07:56:54.193Z,-4.90
2022-12-15T07:59:28.797Z,-4.80
2022-12-15T08:01:55.849Z,-4.80
2022-12-15T08:04:24.515Z,-4.80
2022-12-15T08:06:55.953Z,-4.70
2022-12-15T08:09:24.118Z,-4.70
2022-12-15T08:11:54.058Z,-4.70
2022-12-15T08:14:32.632Z,-4.60
2022-12-15T08:16:59.687Z,-4.60
2022-12-15T08:19:26.768Z,-4.60
2022-12-15T08:21:55.250Z,-4.50
2022-12-15T08:24:22.872Z,-4.50
2022-12-15T08:26:50.629Z,-4.50
2022-12-15T08:29:53.179Z,-4.40
2022-12-15T08:32:11.083Z,-4.40
2022-12-15T08:34:42.333Z,-4.40
2022-12-15T08:37:09.876Z,-4.30
2022-12-15T08:39:37.284Z,-4.30
2022-12-15T08:42:04.347Z,-4.20
2022-12-15T08:44:31.697Z,-4.10
2022-12-15T08:46:58.519Z,-4.10
2022-12-15T08:49:26.029Z,-4.00
2022-12-15T08:51:54.211Z,-3.90
2022-12-15T08:54:21.342Z,-3.90
2022-12-15T08:56:49.009Z,-3.90
2022-12-15T08:59:16.310Z,-3.80
2022-12-15T09:01:44.565Z,-3.80
2022-12-15T09:04:11.875Z,-3.70
2022-12-15T09:06:41.100Z,-3.60
2022-12-15T09:09:10.369Z,-3.60
2022-12-15T09:11:37.218Z,-3.50
2022-12-15T09:14:04.400Z,-3.40
2022-12-15T09:16:32.655Z,-3.40
2022-12-15T09:19:00.723Z,-3.30
2022-12-15T09:21:30.226Z,-3.20
2022-12-15T09:24:02.048Z,-3.20
2022-12-15T09:26:33.949Z,-3.10
2022-12-15T09:29:04.694Z,-2.90
2022-12-15T09:31:33.945Z,-1.10
2022-12-15T09:34:01.480Z,1.20
2022-12-15T09:36:30.262Z,2.80
2022-12-15T09:38:57.142Z,3.60
2022-12-15T09:41:28.071Z,4.80
2022-12-15T09:44:00.359Z,5.60
2022-12-15T09:47:06.852Z,5.80
2022-12-15T09:49:53.487Z,5.10
2022-12-15T09:52:27.539Z,4.40
2022-12-15T09:54:54.913Z,4.10
2022-12-15T09:57:38.704Z,3.40
2022-12-15T10:00:15.719Z,3.20
2022-12-15T10:03:19.826Z,2.70
2022-12-15T10:06:16.655Z,1.90
2022-12-15T10:09:30.956Z,1.30
2022-12-15T10:12:02.651Z,0.70
2022-12-15T10:14:33.201Z,0.40
2022-12-15T10:17:11.718Z,0.40
2022-12-15T10:20:00.507Z,0.50
2022-12-15T10:22:32.462Z,0.30
2022-12-15T10:25:14.402Z,0.30
2022-12-15T10:27:47.146Z,0.40
2022-12-15T10:30:16.811Z,0.50
2022-12-15T10:33:11.658Z,1.10
2022-12-15T10:35:40.625Z,1.60
2022-12-15T10:38:38.037Z,1.80
2022-12-15T10:41:07.605Z,1.80
2022-12-15T10:43:42.002Z,1.90
2022-12-15T10:46:27.157Z,2.00
2022-12-15T10:49:07.752Z,2.10
2022-12-15T10:51:55.407Z,2.40
2022-12-15T10:54:24.681Z,2.60
2022-12-15T10:56:55.103Z,2.30
2022-12-15T10:59:40.878Z,1.90
2022-12-15T11:02:29.873Z,1.90
2022-12-15T11:05:15.761Z,2.10
2022-12-15T11:07:54.700Z,2.40
2022-12-15T11:10:25.530Z,2.70
2022-12-15T11:13:01.364Z,3.20
2022-12-15T11:15:38.837Z,2.70
2022-12-15T11:18:18.611Z,2.20
2022-12-15T11:21:12.787Z,2.60
2022-12-15T11:24:08.431Z,3.30
2022-12-15T11:26:54.179Z,4.30
2022-12-15T11:29:39.915Z,5.10
2022-12-15T11:32:13.144Z,6.20
2022-12-15T11:34:44.574Z,6.90
2022-12-15T11:37:36.432Z,7.50
2022-12-15T11:40:33.809Z,6.80
2022-12-15T11:43:38.548Z,6.50
2022-12-15T11:46:11.653Z,5.80
2022-12-15T11:49:09.455Z,5.10
2022-12-15T11:51:58.290Z,4.70
2022-12-15T11:54:38.164Z,4.30
2022-12-15T11:57:35.059Z,3.90
2022-12-15T12:00:13.640Z,3.60
2022-12-15T12:03:13.510Z,3.20
2022-12-15T12:12:02.413Z,2.50
2022-12-15T12:15:00.069Z,2.30
2022-12-15T12:17:34.211Z,2.10
2022-12-15T12:20:24.638Z,2.00
2022-12-15T12:23:16.242Z,1.80
2022-12-15T12:26:03.430Z,1.80
2022-12-15T12:28:48.829Z,1.70
2022-12-15T12:31:38.478Z,1.60
2022-12-15T12:34:16.387Z,1.60
2022-12-15T12:36:44.802Z,1.50
2022-12-15T12:39:23.701Z,1.60
2022-12-15T12:42:47.822Z,1.60
2022-12-15T12:45:19.588Z,1.60
2022-12-15T12:47:50.366Z,1.70
2022-12-15T12:50:19.225Z,1.90
2022-12-15T12:53:00.739Z,2.00
2022-12-15T12:55:30.629Z,2.00
2022-12-15T12:57:58.468Z,1.90
2022-12-15T13:00:27.484Z,1.80
2022-12-15T13:03:12.600Z,1.80
2022-12-15T13:05:59.909Z,1.70
2022-12-15T13:08:29.701Z,1.60
2022-12-15T13:10:56.704Z,1.60
2022-12-15T13:13:32.748Z,1.60
2022-12-15T13:16:25.687Z,1.50
2022-12-15T13:19:02.066Z,1.60
2022-12-15T13:21:44.467Z,1.60
2022-12-15T13:24:30.001Z,1.60
2022-12-15T13:27:08.941Z,1.50
2022-12-15T13:29:37.754Z,1.50
2022-12-15T13:32:04.787Z,1.50
2022-12-15T13:34:39.014Z,1.40
2022-12-15T13:37:26.765Z,1.40
2022-12-15T13:39:56.782Z,1.30
2022-12-15T13:45:32.119Z,1.20
2022-12-15T13:47:59.528Z,1.10
2022-12-15T13:50:36.284Z,1.10
2022-12-15T13:53:30.841Z,1.10
2022-12-15T13:56:52.920Z,1.10
2022-12-15T13:59:42.002Z,1.10
2022-12-15T14:02:29.580Z,1.20
2022-12-15T14:05:17.427Z,1.50
2022-12-15T14:07:59.409Z,2.00
2022-12-15T14:10:44.764Z,2.10
2022-12-15T14:13:29.199Z,1.90
2022-12-15T14:16:17.563Z,1.70
2022-12-15T14:18:48.329Z,1.50
2022-12-15T14:21:23.646Z,1.40
2022-12-15T14:26:41.703Z,1.40
2022-12-15T14:29:10.627Z,1.30
2022-12-15T14:31:38.237Z,1.30
2022-12-15T14:34:19.737Z,1.50
2022-12-15T14:36:50.380Z,1.60
2022-12-15T14:39:28.302Z,1.60
2022-12-15T14:41:57.717Z,1.40
2022-12-15T14:44:49.762Z,1.30
2022-12-15T14:47:23.767Z,1.20
2022-12-15T14:49:56.857Z,1.10
2022-12-15T14:52:40.242Z,1.00
2022-12-15T14:55:39.826Z,0.90
2022-12-15T14:58:39.859Z,0.80
2022-12-15T15:01:25.306Z,0.70
2022-12-15T15:03:12.649Z,2.70
2022-12-15T15:04:00.857Z,0.60
2022-12-15T15:06:51.965Z,0.50
2022-12-15T15:09:25.592Z,0.50
2022-12-15T15:12:17.404Z,0.40
2022-12-15T15:14:48.457Z,0.40
2022-12-15T15:17:24.509Z,0.30
2022-12-15T15:20:02.419Z,0.20
2022-12-15T15:22:37.637Z,0.10
2022-12-15T15:25:25.339Z,0.10
2022-12-15T15:27:52.705Z,0.00
2022-12-15T15:30:24.655Z,-0.10
2022-12-15T15:32:58.784Z,-0.10
2022-12-15T15:35:31.345Z,-0.20
2022-12-15T15:38:21.944Z,-0.20
2022-12-15T15:41:01.408Z,-0.30
2022-12-15T15:43:29.203Z,-0.30
2022-12-15T15:46:47.290Z,-0.30
2022-12-15T15:49:18.034Z,-0.40
2022-12-15T15:51:45.419Z,-0.40
2022-12-15T15:54:15.569Z,-0.40
2022-12-15T15:56:42.610Z,-0.50
2022-12-15T15:59:14.241Z,-0.50
2022-12-15T16:01:41.705Z,-0.50
2022-12-15T16:04:09.217Z,-0.60
2022-12-15T16:06:42.119Z,-0.60
2022-12-15T16:09:15.271Z,-0.60
2022-12-15T16:11:44.884Z,-0.60
2022-12-15T16:14:16.494Z,-0.60
2022-12-15T16:16:44.735Z,-0.60
2022-12-15T16:19:14.727Z,-0.60
2022-12-15T16:21:45.238Z,-0.60
